Time,TemperatureF,DewpointF,PressureIn,WindDirection,WindDirectionDegrees,WindSpeedMPH,WindSpeedGustMPH,Humidity,HourlyPrecipIn,Conditions,Clouds,dailyrainin,SolarRadiationWatts/m^2,SoftwareType,DateUTC
2013-08-11 00:01:00,57.0,51.0,-100.00,NNW,331,1.0,3.0,81,0.00,,,0.00,0.000000,,2013-08-11 04:01:00,
2013-08-11 00:32:00,56.0,51.0,-100.00,NE,34,1.0,4.0,83,0.00,,,0.00,0.000000,,2013-08-11 04:32:00,
2013-08-11 00:43:00,56.0,51.0,-100.00,NE,34,1.0,4.0,83,0.00,,,0.00,0.000000,,2013-08-11 04:43:00,
2013-08-11 00:53:00,56.0,51.0,-100.00,NE,34,1.0,4.0,83,0.00,,,0.00,0.000000,,2013-08-11 04:53:00,
2013-08-11 01:02:00,56.0,51.0,-100.00,NE,34,1.0,4.0,83,0.00,,,0.00,0.000000,,2013-08-11 05:02:00,
2013-08-11 01:38:00,57.0,50.0,-100.00,WSW,248,1.0,5.0,77,0.00,,,0.00,0.000000,,2013-08-11 05:38:00,
2013-08-11 01:50:00,57.0,50.0,-100.00,WSW,248,1.0,5.0,77,0.00,,,0.00,0.000000,,2013-08-11 05:50:00,
2013-08-11 01:58:00,57.0,50.0,-100.00,WSW,248,1.0,5.0,77,0.00,,,0.00,0.000000,,2013-08-11 05:58:00,
2013-08-11 02:04:00,57.0,50.0,-100.00,WSW,248,1.0,5.0,77,0.00,,,0.00,0.000000,,2013-08-11 06:04:00,
2013-08-11 02:38:00,59.0,50.0,-100.00,NNW,346,0.0,3.0,72,0.00,,,0.00,0.000000,,2013-08-11 06:38:00,
2013-08-11 02:49:00,59.0,50.0,-100.00,NNW,346,0.0,3.0,72,0.00,,,0.00,0.000000,,2013-08-11 06:49:00,
2013-08-11 03:08:00,59.0,51.0,-100.00,North,6,0.0,2.0,75,0.00,,,0.00,0.000000,,2013-08-11 07:08:00,
2013-08-11 03:38:00,59.0,51.0,-100.00,North,6,0.0,2.0,75,0.00,,,0.00,0.000000,,2013-08-11 07:38:00,
2013-08-11 03:47:00,59.0,51.0,-100.00,North,6,0.0,2.0,75,0.00,,,0.00,0.000000,,2013-08-11 07:47:00,
2013-08-11 03:56:00,59.0,51.0,-100.00,North,6,0.0,2.0,75,0.00,,,0.00,0.000000,,2013-08-11 07:56:00,
2013-08-11 04:08:00,60.0,49.0,-100.00,East,96,0.0,2.0,67,0.00,,,0.00,0.000000,,2013-08-11 08:08:00,
2013-08-11 04:37:00,60.0,49.0,-100.00,East,96,0.0,2.0,67,0.00,,,0.00,0.000000,,2013-08-11 08:37:00,
2013-08-11 04:49:00,60.0,49.0,-100.00,East,96,0.0,2.0,67,0.00,,,0.00,0.000000,,2013-08-11 08:49:00,
2013-08-11 04:59:00,60.0,49.0,-100.00,East,96,0.0,2.0,67,0.00,,,0.00,0.000000,,2013-08-11 08:59:00,
2013-08-11 05:37:00,60.0,49.0,-100.00,SSW,197,0.0,0.0,66,0.00,,,0.00,0.000000,,2013-08-11 09:37:00,
2013-08-11 06:02:00,60.0,49.0,-100.00,SSW,197,0.0,0.0,66,0.00,,,0.00,0.000000,,2013-08-11 10:02:00,
2013-08-11 06:38:00,58.0,50.0,-100.00,NNW,344,2.0,4.0,75,0.00,,,0.00,0.000000,,2013-08-11 10:38:00,
2013-08-11 06:47:00,58.0,50.0,-100.00,NNW,344,2.0,4.0,75,0.00,,,0.00,0.000000,,2013-08-11 10:47:00,
2013-08-11 06:58:00,58.0,50.0,-100.00,NNW,344,2.0,4.0,75,0.00,,,0.00,0.000000,,2013-08-11 10:58:00,
2013-08-11 07:07:00,58.0,50.0,-100.00,NNW,344,2.0,4.0,75,0.00,,,0.00,0.000000,,2013-08-11 11:07:00,
2013-08-11 07:40:00,57.0,53.0,-100.00,North,4,1.0,3.0,88,0.01,,,-99.99,3.000000,,2013-08-11 11:40:00,
2013-08-11 07:50:00,57.0,53.0,-100.00,North,4,1.0,3.0,88,0.01,,,-99.99,3.000000,,2013-08-11 11:50:00,
2013-08-11 08:01:00,57.0,53.0,-100.00,North,4,1.0,3.0,88,0.01,,,-99.99,3.000000,,2013-08-11 12:01:00,
2013-08-11 08:07:00,57.0,53.0,-100.00,North,4,1.0,3.0,88,0.01,,,-99.99,3.000000,,2013-08-11 12:07:00,
2013-08-11 08:38:00,60.0,57.0,-100.00,NE,50,0.0,3.0,89,0.00,,,-99.99,74.000000,,2013-08-11 12:38:00,
2013-08-11 08:47:00,60.0,57.0,-100.00,NE,50,0.0,3.0,89,0.00,,,-99.99,74.000000,,2013-08-11 12:47:00,
2013-08-11 08:56:00,60.0,57.0,-100.00,NE,50,0.0,3.0,89,0.00,,,-99.99,74.000000,,2013-08-11 12:56:00,
2013-08-11 09:07:00,60.0,57.0,-100.00,NE,50,0.0,3.0,89,0.00,,,-99.99,74.000000,,2013-08-11 13:07:00,
2013-08-11 09:41:00,63.0,53.0,-100.00,ENE,60,1.0,2.0,70,0.00,,,0.01,120.000000,,2013-08-11 13:41:00,
2013-08-11 09:48:00,63.0,53.0,-100.00,ENE,60,1.0,2.0,70,0.00,,,0.01,120.000000,,2013-08-11 13:48:00,
2013-08-11 09:58:00,63.0,53.0,-100.00,ENE,60,1.0,2.0,70,0.00,,,0.01,120.000000,,2013-08-11 13:58:00,
2013-08-11 10:06:00,63.0,53.0,-100.00,ENE,60,1.0,2.0,70,0.00,,,0.01,120.000000,,2013-08-11 14:06:00,
2013-08-11 10:08:00,64.0,54.0,-100.00,North,5,2.0,4.0,70,0.00,,,0.01,149.000000,,2013-08-11 14:08:00,
2013-08-11 10:37:00,64.0,54.0,-100.00,North,5,2.0,4.0,70,0.00,,,0.01,149.000000,,2013-08-11 14:37:00,
2013-08-11 10:49:00,64.0,54.0,-100.00,North,5,2.0,4.0,70,0.00,,,0.01,149.000000,,2013-08-11 14:49:00,
2013-08-11 10:57:00,64.0,54.0,-100.00,North,5,2.0,4.0,70,0.00,,,0.01,149.000000,,2013-08-11 14:57:00,
2013-08-11 11:41:00,69.0,56.0,-100.00,ENE,64,3.0,6.0,63,0.00,,,0.01,378.000000,,2013-08-11 15:41:00,
2013-08-11 11:49:00,69.0,56.0,-100.00,ENE,64,3.0,6.0,63,0.00,,,0.01,378.000000,,2013-08-11 15:49:00,
2013-08-11 12:00:00,69.0,56.0,-100.00,ENE,64,3.0,6.0,63,0.00,,,0.01,378.000000,,2013-08-11 16:00:00,
2013-08-11 12:08:00,71.0,52.0,-100.00,North,1,3.0,7.0,51,0.00,,,0.01,735.000000,,2013-08-11 16:08:00,
2013-08-11 12:41:00,71.0,52.0,-100.00,North,1,3.0,7.0,51,0.00,,,0.01,735.000000,,2013-08-11 16:41:00,
2013-08-11 12:47:00,71.0,52.0,-100.00,North,1,3.0,7.0,51,0.00,,,0.01,735.000000,,2013-08-11 16:47:00,
2013-08-11 12:59:00,71.0,52.0,-100.00,North,1,3.0,7.0,51,0.00,,,0.01,735.000000,,2013-08-11 16:59:00,
2013-08-11 13:38:00,73.0,52.0,-100.00,NNW,342,4.0,9.0,48,0.00,,,0.01,774.000000,,2013-08-11 17:38:00,
2013-08-11 13:48:00,73.0,52.0,-100.00,NNW,342,4.0,9.0,48,0.00,,,0.01,774.000000,,2013-08-11 17:48:00,
2013-08-11 13:58:00,73.0,52.0,-100.00,NNW,342,4.0,9.0,48,0.00,,,0.01,774.000000,,2013-08-11 17:58:00,
2013-08-11 14:06:00,73.0,52.0,-100.00,NNW,342,4.0,9.0,48,0.00,,,0.01,774.000000,,2013-08-11 18:06:00,
2013-08-11 14:08:00,74.0,55.0,-100.00,WSW,258,4.0,9.0,52,0.00,,,0.01,747.000000,,2013-08-11 18:08:00,
2013-08-11 14:40:00,74.0,55.0,-100.00,WSW,258,4.0,9.0,52,0.00,,,0.01,747.000000,,2013-08-11 18:40:00,
2013-08-11 14:50:00,74.0,55.0,-100.00,WSW,258,4.0,9.0,52,0.00,,,0.01,747.000000,,2013-08-11 18:50:00,
2013-08-11 14:58:00,74.0,55.0,-100.00,WSW,258,4.0,9.0,52,0.00,,,0.01,747.000000,,2013-08-11 18:58:00,
2013-08-11 15:08:00,73.0,56.0,-100.00,WSW,243,4.0,9.0,56,0.00,,,0.01,550.000000,,2013-08-11 19:08:00,
2013-08-11 15:35:00,73.0,56.0,-100.00,WSW,243,4.0,9.0,56,0.00,,,0.01,550.000000,,2013-08-11 19:35:00,
2013-08-11 15:51:00,73.0,56.0,-100.00,WSW,243,4.0,9.0,56,0.00,,,0.01,550.000000,,2013-08-11 19:51:00,
2013-08-11 16:00:00,73.0,56.0,-100.00,WSW,243,4.0,9.0,56,0.00,,,0.01,550.000000,,2013-08-11 20:00:00,
2013-08-11 16:40:00,76.0,60.0,-100.00,NNW,340,4.0,12.0,57,0.00,,,0.01,594.000000,,2013-08-11 20:40:00,
2013-08-11 16:50:00,76.0,60.0,-100.00,NNW,340,4.0,12.0,57,0.00,,,0.01,594.000000,,2013-08-11 20:50:00,
2013-08-11 16:59:00,76.0,60.0,-100.00,NNW,340,4.0,12.0,57,0.00,,,0.01,594.000000,,2013-08-11 20:59:00,
2013-08-11 17:37:00,75.0,58.0,-100.00,NNW,342,3.0,9.0,55,0.00,,,0.01,474.000000,,2013-08-11 21:37:00,
2013-08-11 17:50:00,75.0,58.0,-100.00,NNW,342,3.0,9.0,55,0.00,,,0.01,474.000000,,2013-08-11 21:50:00,
2013-08-11 17:59:00,75.0,58.0,-100.00,NNW,342,3.0,9.0,55,0.00,,,0.01,474.000000,,2013-08-11 21:59:00,
2013-08-11 18:05:00,75.0,58.0,-100.00,NNW,342,3.0,9.0,55,0.00,,,0.01,474.000000,,2013-08-11 22:05:00,
2013-08-11 18:36:00,73.0,57.0,-100.00,NNW,328,1.0,7.0,58,0.00,,,0.01,250.000000,,2013-08-11 22:36:00,
2013-08-11 18:48:00,73.0,57.0,-100.00,NNW,328,1.0,7.0,58,0.00,,,0.01,250.000000,,2013-08-11 22:48:00,
2013-08-11 18:59:00,73.0,57.0,-100.00,NNW,328,1.0,7.0,58,0.00,,,0.01,250.000000,,2013-08-11 22:59:00,
2013-08-11 19:07:00,73.0,57.0,-100.00,NNW,328,1.0,7.0,58,0.00,,,0.01,250.000000,,2013-08-11 23:07:00,
2013-08-11 19:37:00,73.0,59.0,-100.00,WNW,289,1.0,6.0,61,0.00,,,0.01,133.000000,,2013-08-11 23:37:00,
2013-08-11 19:50:00,73.0,59.0,-100.00,WNW,289,1.0,6.0,61,0.00,,,0.01,133.000000,,2013-08-11 23:50:00,
2013-08-11 19:58:00,73.0,59.0,-100.00,WNW,289,1.0,6.0,61,0.00,,,0.01,133.000000,,2013-08-11 23:58:00,
2013-08-11 20:07:00,73.0,59.0,-100.00,WNW,289,1.0,6.0,61,0.00,,,0.01,133.000000,,2013-08-12 00:07:00,
2013-08-11 20:08:00,65.0,58.0,-100.00,NNE,32,1.0,4.0,77,0.00,,,0.01,24.000000,,2013-08-12 00:08:00,
2013-08-11 20:38:00,65.0,58.0,-100.00,NNE,32,1.0,4.0,77,0.00,,,0.01,24.000000,,2013-08-12 00:38:00,
2013-08-11 20:53:00,65.0,58.0,-100.00,NNE,32,1.0,4.0,77,0.00,,,0.01,24.000000,,2013-08-12 00:53:00,
2013-08-11 20:59:00,65.0,58.0,-100.00,NNE,32,1.0,4.0,77,0.00,,,0.01,24.000000,,2013-08-12 00:59:00,
2013-08-11 21:40:00,63.0,57.0,-100.00,West,276,0.0,2.0,82,0.00,,,0.01,2.000000,,2013-08-12 01:40:00,
2013-08-11 21:48:00,63.0,57.0,-100.00,West,276,0.0,2.0,82,0.00,,,0.01,2.000000,,2013-08-12 01:48:00,
2013-08-11 21:57:00,63.0,57.0,-100.00,West,276,0.0,2.0,82,0.00,,,0.01,2.000000,,2013-08-12 01:57:00,
2013-08-11 22:37:00,61.0,57.0,-100.00,NW,310,1.0,3.0,88,0.00,,,0.01,0.000000,,2013-08-12 02:37:00,
2013-08-11 22:50:00,61.0,57.0,-100.00,NW,310,1.0,3.0,88,0.00,,,0.01,0.000000,,2013-08-12 02:50:00,
2013-08-11 23:00:00,61.0,57.0,-100.00,NW,310,1.0,3.0,88,0.00,,,0.01,0.000000,,2013-08-12 03:00:00,
2013-08-11 23:39:00,61.0,55.0,-100.00,North,10,0.0,3.0,81,0.00,,,0.01,0.000000,,2013-08-12 03:39:00,
2013-08-11 23:48:00,61.0,55.0,-100.00,North,10,0.0,3.0,81,0.00,,,0.01,0.000000,,2013-08-12 03:48:00,